TimeMST,TemperatureF,Dew PointF,Humidity,Sea Level PressureIn,VisibilityMPH,Wind Direction,Wind SpeedMPH,Gust SpeedMPH,PrecipitationIn,Events,Conditions,WindDirDegrees,DateUTC
12:56 AM,18.0,3.9,54,30.08,10.0,SW,12.7,-,N/A,,Clear,220,2013-01-13 07:56:00
1:56 AM,16.0,3.0,57,30.09,10.0,SSW,9.2,-,N/A,,Clear,200,2013-01-13 08:56:00
2:56 AM,12.0,1.9,64,30.10,10.0,SW,5.8,-,N/A,,Clear,220,2013-01-13 09:56:00
3:56 AM,12.0,1.9,64,30.08,10.0,SSW,9.2,-,N/A,,Clear,200,2013-01-13 10:56:00
4:56 AM,12.0,1.0,61,30.08,10.0,South,3.5,-,N/A,,Clear,190,2013-01-13 11:56:00
5:56 AM,10.0,-0.9,61,30.10,10.0,Calm,Calm,-,N/A,,Clear,0,2013-01-13 12:56:00
6:56 AM,9.0,-0.0,67,30.14,10.0,NE,3.5,-,N/A,,Clear,40,2013-01-13 13:56:00
7:56 AM,6.1,-2.0,69,30.17,10.0,Calm,Calm,-,N/A,,Clear,0,2013-01-13 14:56:00
8:56 AM,12.9,1.9,62,30.17,10.0,ESE,5.8,-,N/A,,Clear,110,2013-01-13 15:56:00
9:56 AM,19.4,3.2,49,30.03,10.0,Calm,Calm,-,N/A,,Clear,0,2013-01-13 16:56:00
10:56 AM,25.0,1.0,36,30.09,10.0,Calm,Calm,-,N/A,,Clear,0,2013-01-13 17:56:00
11:56 AM,27.0,-0.0,31,30.05,10.0,North,5.8,-,N/A,,Clear,350,2013-01-13 18:56:00
12:56 PM,28.9,1.0,30,30.01,10.0,NNE,4.6,-,N/A,,Clear,30,2013-01-13 19:56:00
1:56 PM,30.9,1.0,28,29.98,10.0,ENE,3.5,-,N/A,,Clear,60,2013-01-13 20:56:00
2:56 PM,33.1,-0.0,24,29.98,10.0,Calm,Calm,-,N/A,,Clear,0,2013-01-13 21:56:00
3:56 PM,33.1,1.0,26,29.98,10.0,North,6.9,-,N/A,,Clear,10,2013-01-13 22:56:00
4:56 PM,30.9,-0.0,27,30.01,10.0,North,5.8,-,N/A,,Clear,360,2013-01-13 23:56:00
5:56 PM,27.0,-0.0,31,30.04,10.0,NW,6.9,-,N/A,,Clear,320,2013-01-14 00:56:00
6:56 PM,24.1,-0.0,35,30.06,10.0,NNW,5.8,-,N/A,,Clear,330,2013-01-14 01:56:00
7:56 PM,18.0,-0.9,44,30.11,10.0,South,4.6,-,N/A,,Clear,170,2013-01-14 02:56:00
8:56 PM,12.9,-2.0,51,30.09,10.0,SSW,5.8,-,N/A,,Clear,200,2013-01-14 03:56:00
9:56 PM,17.1,-0.0,47,30.06,10.0,Calm,Calm,-,N/A,,Clear,0,2013-01-14 04:56:00
10:56 PM,10.9,-2.0,56,30.06,10.0,South,4.6,-,N/A,,Clear,190,2013-01-14 05:56:00
11:56 PM,16.0,-0.0,49,30.04,10.0,NW,5.8,-,N/A,,Clear,310,2013-01-14 06:56:00